RCFN

Taitung Airport

Taitung City, Taiwan
TAF RCFN 182300Z 1900/1924 36005KT 9999 FEW020 TEMPO 1903/1909 08008KT FEW015 BKN032
Issued Valid From Valid To
Dec-18 @ 23:00 UTC
(an hour ago)
Dec-19 @ 00:00 UTC
(19 minutes ago)
Dec-20 @ 00:00 UTC
(in 24 hours)
Dec-19 @ 00:00 to Dec-20 @ 00:00
TAF RCFN 182300Z 1900/1924 36005KT 9999 FEW020
Wind Visibility Clouds
360° at 5 knots 10,000+ meters
  • Few at 2,000' AGL
Temporary Dec-19 @ 03:00 to Dec-19 @ 09:00
TEMPO 1903/1909 08008KT FEW015 BKN032
Wind Clouds
80° at 8 knots
  • Few at 1,500' AGL
  • Broken at 3,200' AGL
TAF RCFN 182300Z 1900/1924 36005KT 9999 FEW020 TEMPO 1903/1909 08008KT FEW015 BKN032
Issued Dec-18 @ 23:00 UTC
(an hour ago)
Valid From Dec-19 @ 00:00 UTC
(19 minutes ago)
Valid To Dec-20 @ 00:00 UTC
(in 24 hours)
Dec-19 @ 00:00 - Dec-20 @ 00:00
Wind Visibility
360° at 5 knots 10,000+ meters
Clouds
  • Few at 2,000' AGL
Temporary Dec-19 @ 03:00 - Dec-19 @ 09:00
Wind
80° at 8 knots
Clouds
  • Few at 1,500' AGL
  • Broken at 3,200' AGL